Test XHTML 1.0 Strict Page for WU-History Testing
Station Historical Data
 
Daily Summary for April 02, 2015 Units:  Both    English   Metric
« Previous Day
Next Day »
Daily Weekly Monthly Yearly Custom
  Current: High: Low: Average:
Temperature: 44.6 °F /  7 °C 44.6 °F /  7 °C 39.9 °F /  4.4 °C 41.5 °F /  5.3 °C
Dew Point: 38.8 °F /  3.8 °C 43.2 °F /  6.2 °C 38.8 °F /  3.8 °C 41 °F /  5 °C
Humidity: 80% 100% 80% 98%
Wind Speed: 0.0mph /  0km/h 10.4mph /  16.7km/h - 1mph /  1.6km/h
Wind Gust: 0.0mph /  0km/h 10.4mph /  16.7km/h - -
WindCalm - - North
Pressure: 26.59 in /  900.3 hPa 26.59 in /  900.3 hPa 26.59 in /  900.3 hPa -
Precipitation: 0.05 in /  1.27 mm      
Historical Graphs
 
 
Weather-Above Climate History
Untitled
Tabular Data for April 02, 2015
Time Temperature Dew Point Pressure Wind Wind Speed Wind Gust Humidity Rainfall Rate (Hourly)
00:00 43.2 °F /  6.2 °C 43.2 °F /  6.2 °C 26.59in /  900.3hPa Calm   0.1mph /  0.2km/h 100% 0.03in /  0.76cm
00:05 43.2 °F /  6.2 °C 43.2 °F /  6.2 °C 26.59in /  900.3hPa Calm     100% 0.04in /  1.02cm
00:10 43.2 °F /  6.2 °C 43.2 °F /  6.2 °C 26.59in /  900.3hPa Calm     100% 0.04in /  1.02cm
00:15 43.2 °F /  6.2 °C 43.2 °F /  6.2 °C 26.59in /  900.3hPa Calm   0.1mph /  0.2km/h 100% 0.05in /  1.27cm
00:20 43.2 °F /  6.2 °C 43.2 °F /  6.2 °C 26.59in /  900.3hPa Calm     100% 0.04in /  1.02cm
00:25 43.2 °F /  6.2 °C 43.2 °F /  6.2 °C 26.59in /  900.3hPa Calm     100% 0.05in /  1.27cm
00:30 43.2 °F /  6.2 °C 43.2 °F /  6.2 °C 26.59in /  900.3hPa North 2.3mph /  3.7km/h 2.3mph /  3.7km/h 100% 0.04in /  1.02cm
00:35 43.2 °F /  6.2 °C 43.2 °F /  6.2 °C 26.59in /  900.3hPa Calm     100% 0.05in /  1.27cm
00:40 43.2 °F /  6.2 °C 43.2 °F /  6.2 °C 26.59in /  900.3hPa Calm     100% 0.04in /  1.02cm
00:45 43.2 °F /  6.2 °C 43.2 °F /  6.2 °C 26.59in /  900.3hPa Calm     100% 0.04in /  1.02cm
00:50 43.2 °F /  6.2 °C 43.2 °F /  6.2 °C 26.59in /  900.3hPa Calm     100% 0.04in /  1.02cm
00:55 42.8 °F /  6 °C 42.8 °F /  6 °C 26.59in /  900.3hPa Calm     100% 0.04in /  1.02cm
01:00 42.6 °F /  5.9 °C 42.6 °F /  5.9 °C 26.59in /  900.3hPa North 2.3mph /  3.7km/h   100% 0.05in /  1.27cm
01:05 42.4 °F /  5.8 °C 42.4 °F /  5.8 °C 26.59in /  900.3hPa Calm     100% 0.04in /  1.02cm
01:10 42.3 °F /  5.7 °C 42.3 °F /  5.7 °C 26.59in /  900.3hPa Calm     100% 0.04in /  1.02cm
01:15 42.3 °F /  5.7 °C 42.3 °F /  5.7 °C 26.59in /  900.3hPa Calm     100% 0.03in /  0.76cm
01:20 42.3 °F /  5.7 °C 42.3 °F /  5.7 °C 26.59in /  900.3hPa Calm     100% 0.03in /  0.76cm
01:25 42.3 °F /  5.7 °C 42.3 °F /  5.7 °C 26.59in /  900.3hPa North 3.5mph /  5.6km/h   100% 0.03in /  0.76cm
01:30 42.3 °F /  5.7 °C 42.3 °F /  5.7 °C 26.59in /  900.3hPa North 1.2mph /  1.9km/h 1.2mph /  1.9km/h 100% 0.03in /  0.76cm
01:35 42.3 °F /  5.7 °C 42.3 °F /  5.7 °C 26.59in /  900.3hPa Calm     100% 0.03in /  0.76cm
01:40 42.3 °F /  5.7 °C 42.3 °F /  5.7 °C 26.59in /  900.3hPa North 1.8mph /  2.9km/h 1.8mph /  2.9km/h 100% 0.03in /  0.76cm
01:45 42.1 °F /  5.6 °C 42.1 °F /  5.6 °C 26.59in /  900.3hPa Calm     100% 0.03in /  0.76cm
01:50 41.9 °F /  5.5 °C 41.9 °F /  5.5 °C 26.59in /  900.3hPa North 2.3mph /  3.7km/h 2.3mph /  3.7km/h 100% 0.03in /  0.76cm
01:55 41.9 °F /  5.5 °C 41.9 °F /  5.5 °C 26.59in /  900.3hPa Calm     100% 0.03in /  0.76cm
02:00 41.7 °F /  5.4 °C 41.7 °F /  5.4 °C 26.59in /  900.3hPa North 3.5mph /  5.6km/h 3.5mph /  5.6km/h 100% 0.02in /  0.51cm
02:05 41.4 °F /  5.2 °C 41.4 °F /  5.2 °C 26.59in /  900.3hPa North 1.9mph /  3.1km/h 1.9mph /  3.1km/h 100% 0.03in /  0.76cm
02:10 41.2 °F /  5.1 °C 41.2 °F /  5.1 °C 26.59in /  900.3hPa North 4.6mph /  7.4km/h 4.6mph /  7.4km/h 100% 0.03in /  0.76cm
02:15 41.0 °F /  5 °C 41.0 °F /  5 °C 26.59in /  900.3hPa Calm     100% 0.03in /  0.76cm
02:20 40.8 °F /  4.9 °C 40.8 °F /  4.9 °C 26.59in /  900.3hPa North 0.6mph /  1km/h 0.6mph /  1km/h 100% 0.03in /  0.76cm
02:25 40.8 °F /  4.9 °C 40.8 °F /  4.9 °C 26.59in /  900.3hPa Calm     100% 0.02in /  0.51cm
02:30 40.8 °F /  4.9 °C 40.8 °F /  4.9 °C 26.59in /  900.3hPa Calm   0.1mph /  0.2km/h 100% 0.02in /  0.51cm
02:35 40.8 °F /  4.9 °C 40.8 °F /  4.9 °C 26.59in /  900.3hPa North 2.3mph /  3.7km/h 2.3mph /  3.7km/h 100% 0.02in /  0.51cm
02:40 40.8 °F /  4.9 °C 40.8 °F /  4.9 °C 26.59in /  900.3hPa Calm     100% 0.02in /  0.51cm
02:45 40.8 °F /  4.9 °C 40.8 °F /  4.9 °C 26.59in /  900.3hPa North 3.5mph /  5.6km/h 3.5mph /  5.6km/h 100% 0.02in /  0.51cm
02:50 40.8 °F /  4.9 °C 40.8 °F /  4.9 °C 26.59in /  900.3hPa North 3.5mph /  5.6km/h 3.5mph /  5.6km/h 100% 0.02in /  0.51cm
02:55 40.8 °F /  4.9 °C 40.8 °F /  4.9 °C 26.59in /  900.3hPa Calm     100% 0.02in /  0.51cm
03:00 40.8 °F /  4.9 °C 40.8 °F /  4.9 °C 26.59in /  900.3hPa Calm   0.2mph /  0.3km/h 100% 0.02in /  0.51cm
03:05 40.8 °F /  4.9 °C 40.8 °F /  4.9 °C 26.59in /  900.3hPa North 2.3mph /  3.7km/h 2.3mph /  3.7km/h 100% 0.01in /  0.25cm
03:10 40.8 °F /  4.9 °C 40.8 °F /  4.9 °C 26.59in /  900.3hPa Calm     100% 0.01in /  0.25cm
03:15 40.8 °F /  4.9 °C 40.8 °F /  4.9 °C 26.59in /  900.3hPa North 4.6mph /  7.4km/h 4.6mph /  7.4km/h 100% 0.01in /  0.25cm
03:20 40.8 °F /  4.9 °C 40.8 °F /  4.9 °C 26.59in /  900.3hPa Calm     100% 0.01in /  0.25cm
03:25 40.8 °F /  4.9 °C 40.8 °F /  4.9 °C 26.59in /  900.3hPa North 2.3mph /  3.7km/h 2.3mph /  3.7km/h 100% 0.02in /  0.51cm
03:30 40.8 °F /  4.9 °C 40.8 °F /  4.9 °C 26.59in /  900.3hPa Calm     100% 0.02in /  0.51cm
03:35 40.8 °F /  4.9 °C 40.8 °F /  4.9 °C 26.59in /  900.3hPa Calm     100% 0.02in /  0.51cm
03:40 40.8 °F /  4.9 °C 40.8 °F /  4.9 °C 26.59in /  900.3hPa Calm     100% 0.01in /  0.25cm
03:45 40.8 °F /  4.9 °C 40.8 °F /  4.9 °C 26.59in /  900.3hPa Calm     100% 0.01in /  0.25cm
03:50 40.8 °F /  4.9 °C 40.8 °F /  4.9 °C 26.59in /  900.3hPa Calm     100% 0.01in /  0.25cm
03:55 40.8 °F /  4.9 °C 40.8 °F /  4.9 °C 26.59in /  900.3hPa North 1.8mph /  2.9km/h 1.8mph /  2.9km/h 100% 0.01in /  0.25cm
04:00 40.6 °F /  4.8 °C 40.6 °F /  4.8 °C 26.59in /  900.3hPa Calm     100% 0.01in /  0.25cm
04:05 40.6 °F /  4.8 °C 40.6 °F /  4.8 °C 26.59in /  900.3hPa Calm     100% 0.01in /  0.25cm
04:10 40.6 °F /  4.8 °C 40.6 °F /  4.8 °C 26.59in /  900.3hPa Calm     100% 0.01in /  0.25cm
04:15 40.5 °F /  4.7 °C 40.5 °F /  4.7 °C 26.59in /  900.3hPa North 10.4mph /  16.7km/h 10.4mph /  16.7km/h 100% 0.01in /  0.25cm
04:20 40.5 °F /  4.7 °C 40.5 °F /  4.7 °C 26.59in /  900.3hPa Calm     100% 0.01in /  0.25cm
04:25 40.5 °F /  4.7 °C 40.5 °F /  4.7 °C 26.59in /  900.3hPa North 3.5mph /  5.6km/h 3.5mph /  5.6km/h 100% 0.00in /  0cm
04:30 40.5 °F /  4.7 °C 40.5 °F /  4.7 °C 26.59in /  900.3hPa North 1.2mph /  1.9km/h 1.2mph /  1.9km/h 100% 0.00in /  0cm
04:35 40.5 °F /  4.7 °C 40.5 °F /  4.7 °C 26.59in /  900.3hPa North 3.5mph /  5.6km/h 3.5mph /  5.6km/h 100% 0.00in /  0cm
04:40 40.5 °F /  4.7 °C 40.5 °F /  4.7 °C 26.59in /  900.3hPa North 1.2mph /  1.9km/h   100% 0.00in /  0cm
04:45 40.5 °F /  4.7 °C 40.5 °F /  4.7 °C 26.59in /  900.3hPa North 4.6mph /  7.4km/h 4.6mph /  7.4km/h 100% 0.00in /  0cm
04:50 40.5 °F /  4.7 °C 40.5 °F /  4.7 °C 26.59in /  900.3hPa North 2.7mph /  4.3km/h 2.7mph /  4.3km/h 100% 0.00in /  0cm
04:55 40.5 °F /  4.7 °C 40.5 °F /  4.7 °C 26.59in /  900.3hPa Calm     100% 0.00in /  0cm
05:00 40.5 °F /  4.7 °C 40.5 °F /  4.7 °C 26.59in /  900.3hPa North 1.2mph /  1.9km/h   100% 0.00in /  0cm
05:05 40.5 °F /  4.7 °C 40.5 °F /  4.7 °C 26.59in /  900.3hPa North 2.3mph /  3.7km/h 2.3mph /  3.7km/h 100% 0.00in /  0cm
05:10 40.5 °F /  4.7 °C 40.5 °F /  4.7 °C 26.59in /  900.3hPa Calm     100% 0.00in /  0cm
05:15 40.5 °F /  4.7 °C 40.5 °F /  4.7 °C 26.59in /  900.3hPa Calm     100% 0.00in /  0cm
05:20 40.5 °F /  4.7 °C 40.5 °F /  4.7 °C 26.59in /  900.3hPa North 5.8mph /  9.3km/h 5.8mph /  9.3km/h 100% 0.00in /  0cm
05:25 40.5 °F /  4.7 °C 40.5 °F /  4.7 °C 26.59in /  900.3hPa North 1.2mph /  1.9km/h 1.2mph /  1.9km/h 100% 0.00in /  0cm
05:30 40.5 °F /  4.7 °C 40.5 °F /  4.7 °C 26.59in /  900.3hPa Calm     100% 0.00in /  0cm
05:35 40.5 °F /  4.7 °C 40.5 °F /  4.7 °C 26.59in /  900.3hPa North 3.5mph /  5.6km/h 3.5mph /  5.6km/h 100% 0.00in /  0cm
05:40 40.5 °F /  4.7 °C 40.5 °F /  4.7 °C 26.59in /  900.3hPa North 3.5mph /  5.6km/h 3.5mph /  5.6km/h 100% 0.00in /  0cm
05:45 40.5 °F /  4.7 °C 40.5 °F /  4.7 °C 26.59in /  900.3hPa Calm     100% 0.00in /  0cm
05:50 40.5 °F /  4.7 °C 40.5 °F /  4.7 °C 26.59in /  900.3hPa Calm     100% 0.00in /  0cm
05:55 40.5 °F /  4.7 °C 40.5 °F /  4.7 °C 26.59in /  900.3hPa North 3.5mph /  5.6km/h 3.5mph /  5.6km/h 100% 0.00in /  0cm
06:00 40.5 °F /  4.7 °C 40.5 °F /  4.7 °C 26.59in /  900.3hPa Calm     100% 0.00in /  0cm
06:05 40.5 °F /  4.7 °C 40.5 °F /  4.7 °C 26.59in /  900.3hPa North 3.5mph /  5.6km/h 3.5mph /  5.6km/h 100% 0.00in /  0cm
06:10 40.5 °F /  4.7 °C 40.5 °F /  4.7 °C 26.59in /  900.3hPa Calm     100% 0.00in /  0cm
06:15 40.5 °F /  4.7 °C 40.5 °F /  4.7 °C 26.59in /  900.3hPa Calm     100% 0.00in /  0cm
06:20 40.5 °F /  4.7 °C 40.5 °F /  4.7 °C 26.59in /  900.3hPa Calm     100% 0.00in /  0cm
06:25 40.5 °F /  4.7 °C 40.5 °F /  4.7 °C 26.59in /  900.3hPa Calm     100% 0.00in /  0cm
06:30 40.5 °F /  4.7 °C 40.5 °F /  4.7 °C 26.59in /  900.3hPa Calm     100% 0.00in /  0cm
06:35 40.5 °F /  4.7 °C 40.5 °F /  4.7 °C 26.59in /  900.3hPa Calm     100% 0.00in /  0cm
06:40 40.5 °F /  4.7 °C 40.5 °F /  4.7 °C 26.59in /  900.3hPa Calm     100% 0.00in /  0cm
06:45 40.3 °F /  4.6 °C 40.3 °F /  4.6 °C 26.59in /  900.3hPa Calm     100% 0.00in /  0cm
06:50 40.3 °F /  4.6 °C 40.3 °F /  4.6 °C 26.59in /  900.3hPa Calm     100% 0.00in /  0cm
06:55 40.1 °F /  4.5 °C 40.1 °F /  4.5 °C 26.59in /  900.3hPa Calm     100% 0.00in /  0cm
07:00 40.1 °F /  4.5 °C 40.1 °F /  4.5 °C 26.59in /  900.3hPa Calm     100% 0.00in /  0cm
07:05 39.9 °F /  4.4 °C 39.9 °F /  4.4 °C 26.59in /  900.3hPa Calm     100% 0.00in /  0cm
07:10 39.9 °F /  4.4 °C 39.9 °F /  4.4 °C 26.59in /  900.3hPa Calm     100% 0.00in /  0cm
07:15 40.1 °F /  4.5 °C 40.1 °F /  4.5 °C 26.59in /  900.3hPa Calm     100% 0.00in /  0cm
07:20 40.1 °F /  4.5 °C 40.1 °F /  4.5 °C 26.59in /  900.3hPa Calm     100% 0.00in /  0cm
07:25 40.1 °F /  4.5 °C 40.1 °F /  4.5 °C 26.59in /  900.3hPa Calm     100% 0.00in /  0cm
07:30 40.3 °F /  4.6 °C 40.3 °F /  4.6 °C 26.59in /  900.3hPa Calm     100% 0.00in /  0cm
07:35 40.3 °F /  4.6 °C 40.3 °F /  4.6 °C 26.59in /  900.3hPa North 4.6mph /  7.4km/h 4.6mph /  7.4km/h 100% 0.00in /  0cm
07:40 40.1 °F /  4.5 °C 40.1 °F /  4.5 °C 26.59in /  900.3hPa Calm     100% 0.00in /  0cm
07:45 40.3 °F /  4.6 °C 40.3 °F /  4.6 °C 26.59in /  900.3hPa Calm     100% 0.00in /  0cm
07:50 40.5 °F /  4.7 °C 40.5 °F /  4.7 °C 26.59in /  900.3hPa Calm     100% 0.00in /  0cm
07:55 40.5 °F /  4.7 °C 40.5 °F /  4.7 °C 26.59in /  900.3hPa Calm     100% 0.00in /  0cm
08:00 40.6 °F /  4.8 °C 40.6 °F /  4.8 °C 26.59in /  900.3hPa Calm     100% 0.00in /  0cm
08:05 40.8 °F /  4.9 °C 40.8 °F /  4.9 °C 26.59in /  900.3hPa Calm     100% 0.00in /  0cm
08:10 41.0 °F /  5 °C 41.0 °F /  5 °C 26.59in /  900.3hPa Calm     100% 0.00in /  0cm
08:15 41.0 °F /  5 °C 41.0 °F /  5 °C 26.59in /  900.3hPa Calm     100% 0.00in /  0cm
08:20 41.0 °F /  5 °C 41.0 °F /  5 °C 26.59in /  900.3hPa Calm     100% 0.00in /  0cm
08:25 41.4 °F /  5.2 °C 41.4 °F /  5.2 °C 26.59in /  900.3hPa Calm     100% 0.00in /  0cm
08:30 41.2 °F /  5.1 °C 41.2 °F /  5.1 °C 26.59in /  900.3hPa Calm     100% 0.00in /  0cm
08:35 41.7 °F /  5.4 °C 41.7 °F /  5.4 °C 26.59in /  900.3hPa Calm     100% 0.00in /  0cm
08:40 41.7 °F /  5.4 °C 41.7 °F /  5.4 °C 26.59in /  900.3hPa Calm     100% 0.00in /  0cm
08:45 41.9 °F /  5.5 °C 41.9 °F /  5.5 °C 26.59in /  900.3hPa Calm     100% 0.00in /  0cm
08:50 42.3 °F /  5.7 °C 42.3 °F /  5.7 °C 26.59in /  900.3hPa Calm     100% 0.00in /  0cm
08:55 42.3 °F /  5.7 °C 42.0 °F /  5.6 °C 26.59in /  900.3hPa Calm     99% 0.00in /  0cm
09:00 42.3 °F /  5.7 °C 41.7 °F /  5.4 °C 26.59in /  900.3hPa Calm     98% 0.00in /  0cm
09:05 42.3 °F /  5.7 °C 41.5 °F /  5.3 °C 26.59in /  900.3hPa North 1.2mph /  1.9km/h   97% 0.00in /  0cm
09:10 42.4 °F /  5.8 °C 41.6 °F /  5.3 °C 26.59in /  900.3hPa North 1.5mph /  2.4km/h 1.5mph /  2.4km/h 97% 0.00in /  0cm
09:15 42.8 °F /  6 °C 41.7 °F /  5.4 °C 26.59in /  900.3hPa North 1.4mph /  2.3km/h 1.4mph /  2.3km/h 96% 0.00in /  0cm
09:20 42.8 °F /  6 °C 41.5 °F /  5.3 °C 26.59in /  900.3hPa Calm     95% 0.00in /  0cm
09:25 43.0 °F /  6.1 °C 41.6 °F /  5.3 °C 26.59in /  900.3hPa Calm     95% 0.00in /  0cm
09:30 43.0 °F /  6.1 °C 41.4 °F /  5.2 °C 26.59in /  900.3hPa North 3.5mph /  5.6km/h 3.5mph /  5.6km/h 94% 0.00in /  0cm
09:35 42.8 °F /  6 °C 40.9 °F /  4.9 °C 26.59in /  900.3hPa North 1.2mph /  1.9km/h 1.2mph /  1.9km/h 93% 0.00in /  0cm
09:40 42.8 °F /  6 °C 40.4 °F /  4.7 °C 26.59in /  900.3hPa North 5.1mph /  8.2km/h 5.1mph /  8.2km/h 91% 0.00in /  0cm
09:45 42.8 °F /  6 °C 40.1 °F /  4.5 °C 26.59in /  900.3hPa Calm     90% 0.00in /  0cm
09:50 43.5 °F /  6.4 °C 40.5 °F /  4.7 °C 26.59in /  900.3hPa North 3.5mph /  5.6km/h 3.5mph /  5.6km/h 89% 0.00in /  0cm
09:55 43.7 °F /  6.5 °C 40.4 °F /  4.7 °C 26.59in /  900.3hPa North 1.3mph /  2.1km/h 1.3mph /  2.1km/h 88% 0.00in /  0cm
10:00 43.9 °F /  6.6 °C 40.6 °F /  4.8 °C 26.59in /  900.3hPa North 2.3mph /  3.7km/h 2.3mph /  3.7km/h 88% 0.00in /  0cm
10:05 44.1 °F /  6.7 °C 40.1 °F /  4.5 °C 26.59in /  900.3hPa Calm     86% 0.00in /  0cm
10:10 43.9 °F /  6.6 °C 39.4 °F /  4.1 °C 26.59in /  900.3hPa North 4.0mph /  6.4km/h 4.0mph /  6.4km/h 84% 0.00in /  0cm
10:15 43.5 °F /  6.4 °C 39.0 °F /  3.9 °C 26.59in /  900.3hPa North 2.3mph /  3.7km/h 2.3mph /  3.7km/h 84% 0.00in /  0cm
10:20 43.9 °F /  6.6 °C 39.1 °F /  3.9 °C 26.59in /  900.3hPa North 2.3mph /  3.7km/h 2.3mph /  3.7km/h 83% 0.00in /  0cm
10:25 44.2 °F /  6.8 °C 39.7 °F /  4.3 °C 26.59in /  900.3hPa Calm     84% 0.00in /  0cm
10:30 44.4 °F /  6.9 °C 39.3 °F /  4.1 °C 26.59in /  900.3hPa Calm     82% 0.00in /  0cm
10:35 44.6 °F /  7 °C 38.8 °F /  3.8 °C 26.59in /  900.3hPa Calm     80% 0.00in /  0cm
Wether-Above
Compliments of Weather Underground
Welcome to Weather-Above
Cheddleton weather station supplies various organisations with data from our weather station one of them is the weather Underground this information displayed here is coming from the weather Underground server 

If any information is used please acknowledge the source to www weather-above.com or weather Underground